createdAt,value
2019-06-08T00:00:09.553Z,1006.81
2019-06-08T00:01:09.563Z,1006.79
2019-06-08T00:02:09.524Z,1006.75
2019-06-08T00:03:09.510Z,1006.76
2019-06-08T00:04:09.497Z,1006.73
2019-06-08T00:05:09.493Z,1006.77
2019-06-08T00:06:09.492Z,1006.78
2019-06-08T00:07:09.477Z,1006.79
2019-06-08T00:08:09.462Z,1006.83
2019-06-08T00:09:09.446Z,1006.78
2019-06-08T00:10:09.429Z,1006.81
2019-06-08T00:11:09.423Z,1006.85
2019-06-08T00:12:09.419Z,1006.77
2019-06-08T00:13:09.401Z,1006.71
2019-06-08T00:14:09.390Z,1006.75
2019-06-08T00:15:09.392Z,1006.73
2019-06-08T00:16:09.377Z,1006.73
2019-06-08T00:17:09.358Z,1006.80
2019-06-08T00:18:09.346Z,1006.79
2019-06-08T00:19:09.335Z,1006.81
2019-06-08T00:20:09.328Z,1006.89
2019-06-08T00:21:09.315Z,1006.93
2019-06-08T00:22:09.320Z,1007.04
2019-06-08T00:23:09.285Z,1007.05
2019-06-08T00:24:09.273Z,1007.10
2019-06-08T00:25:09.268Z,1007.10
2019-06-08T00:26:09.267Z,1007.07
2019-06-08T00:27:09.244Z,1007.06
2019-06-08T00:28:09.228Z,1006.95
2019-06-08T00:29:09.254Z,1006.86
2019-06-08T00:30:09.206Z,1006.81
2019-06-08T00:31:09.206Z,1006.78
2019-06-08T00:32:09.183Z,1006.85
2019-06-08T00:33:09.178Z,1006.97
2019-06-08T00:34:09.163Z,1007.02
2019-06-08T00:35:09.153Z,1007.07
2019-06-08T00:36:09.155Z,1007.05
2019-06-08T00:37:09.132Z,1007.05
2019-06-08T00:38:09.122Z,1007.05
2019-06-08T00:39:09.111Z,1007.02
2019-06-08T00:40:09.094Z,1007.16
2019-06-08T00:41:09.099Z,1007.17
2019-06-08T00:42:09.081Z,1007.14
2019-06-08T00:43:09.082Z,1007.16
2019-06-08T00:44:09.053Z,1007.15
2019-06-08T00:45:09.039Z,1007.22
2019-06-08T00:46:09.054Z,1007.25
2019-06-08T00:47:09.044Z,1007.20
2019-06-08T00:48:09.005Z,1007.24
2019-06-08T00:49:08.998Z,1007.28
2019-06-08T00:50:08.987Z,1007.35
2019-06-08T00:51:08.976Z,1007.34
2019-06-08T00:52:08.973Z,1007.38
2019-06-08T00:53:08.961Z,1007.41
2019-06-08T00:54:08.942Z,1007.46
2019-06-08T00:55:08.931Z,1007.43
2019-06-08T00:56:08.920Z,1007.48
2019-06-08T00:57:08.921Z,1007.48
2019-06-08T00:58:08.909Z,1007.49
2019-06-08T00:59:08.887Z,1007.55
2019-06-08T01:00:10.741Z,1007.49
2019-06-08T01:01:08.870Z,1007.52
2019-06-08T01:02:08.850Z,1007.52
2019-06-08T01:03:08.880Z,1007.60
2019-06-08T01:04:08.838Z,1007.59
2019-06-08T01:05:08.827Z,1007.59
2019-06-08T01:06:08.810Z,1007.73
2019-06-08T01:07:08.795Z,1007.72
2019-06-08T01:08:08.795Z,1007.71
2019-06-08T01:09:08.784Z,1007.68
2019-06-08T01:10:08.758Z,1007.69
2019-06-08T01:11:08.752Z,1007.75
2019-06-08T01:12:08.745Z,1007.83
2019-06-08T01:13:08.745Z,1007.91
2019-06-08T01:14:08.724Z,1007.94
2019-06-08T01:15:09.116Z,1008.00
2019-06-08T01:16:08.696Z,1008.06
2019-06-08T01:17:08.682Z,1008.00
2019-06-08T01:18:08.713Z,1008.03
2019-06-08T01:19:08.666Z,1008.10
2019-06-08T01:20:08.655Z,1008.09
2019-06-08T01:21:08.642Z,1008.06
2019-06-08T01:22:08.655Z,1008.02
2019-06-08T01:23:08.621Z,1008.01
2019-06-08T01:24:08.622Z,1007.98
2019-06-08T01:25:08.599Z,1008.00
2019-06-08T01:26:08.584Z,1007.99
2019-06-08T01:27:08.572Z,1008.06
2019-06-08T01:28:08.573Z,1008.09
2019-06-08T01:29:08.551Z,1008.10
2019-06-08T01:30:08.546Z,1008.11
2019-06-08T01:31:08.530Z,1008.05
2019-06-08T01:32:08.522Z,1008.10
2019-06-08T01:33:08.511Z,1008.07
2019-06-08T01:34:08.498Z,1008.07
2019-06-08T01:35:08.482Z,1008.07
2019-06-08T01:36:08.482Z,1008.10
2019-06-08T01:37:08.457Z,1008.16
2019-06-08T01:38:08.451Z,1008.13
2019-06-08T01:39:08.435Z,1008.24
2019-06-08T01:40:08.429Z,1008.30
2019-06-08T01:41:08.444Z,1008.32
2019-06-08T01:42:08.401Z,1008.37
2019-06-08T01:43:08.406Z,1008.29
2019-06-08T01:44:08.442Z,1008.37
2019-06-08T01:45:08.383Z,1008.40
2019-06-08T01:46:08.356Z,1008.39
2019-06-08T01:47:08.365Z,1008.39
2019-06-08T01:48:19.449Z,1008.43
2019-06-08T01:49:09.339Z,1008.41
2019-06-08T01:50:08.312Z,1008.52
2019-06-08T01:51:08.309Z,1008.48
2019-06-08T01:52:08.303Z,1008.50
2019-06-08T01:53:08.289Z,1008.47
2019-06-08T01:54:08.283Z,1008.47
2019-06-08T01:55:08.263Z,1008.45
2019-06-08T01:56:08.251Z,1008.40
2019-06-08T01:57:08.248Z,1008.49
2019-06-08T01:58:08.232Z,1008.53
2019-06-08T01:59:08.218Z,1008.67
2019-06-08T02:00:29.189Z,1008.60
2019-06-08T02:01:09.192Z,1008.69
2019-06-08T02:02:08.195Z,1008.66
2019-06-08T02:03:08.174Z,1008.72
2019-06-08T02:04:08.177Z,1008.66
2019-06-08T02:05:08.157Z,1008.69
2019-06-08T02:06:08.141Z,1008.68
2019-06-08T02:07:08.159Z,1008.65
2019-06-08T02:08:08.112Z,1008.76
2019-06-08T02:09:08.107Z,1008.79
2019-06-08T02:10:08.100Z,1008.79
2019-06-08T02:11:08.085Z,1008.87
2019-06-08T02:12:08.071Z,1008.89
2019-06-08T02:13:08.965Z,1008.96
2019-06-08T02:14:08.056Z,1008.97
2019-06-08T02:15:08.045Z,1008.98
2019-06-08T02:16:08.073Z,1008.93
2019-06-08T02:17:08.021Z,1009.06
2019-06-08T02:18:08.004Z,1009.19
2019-06-08T02:19:08.000Z,1009.31
2019-06-08T02:20:07.988Z,1009.23
2019-06-08T02:21:07.971Z,1009.34
2019-06-08T02:22:07.997Z,1009.34
2019-06-08T02:23:07.976Z,1009.32
2019-06-08T02:24:07.943Z,1009.35
2019-06-08T02:25:07.929Z,1009.42
2019-06-08T02:26:07.923Z,1009.45
2019-06-08T02:27:07.907Z,1009.50
2019-06-08T02:28:07.895Z,1009.57
2019-06-08T02:29:07.893Z,1009.62
2019-06-08T02:30:07.873Z,1009.71
2019-06-08T02:31:07.867Z,1009.71
2019-06-08T02:32:07.856Z,1009.72
2019-06-08T02:33:07.851Z,1009.81
2019-06-08T02:34:07.840Z,1009.78
2019-06-08T02:35:07.821Z,1009.79
2019-06-08T02:36:07.813Z,1009.78
2019-06-08T02:37:07.800Z,1009.74
2019-06-08T02:38:07.782Z,1009.79
2019-06-08T02:39:07.788Z,1009.82
2019-06-08T02:40:07.789Z,1009.86
2019-06-08T02:41:07.784Z,1009.84
2019-06-08T02:42:07.743Z,1009.91
2019-06-08T02:43:07.733Z,1009.94
2019-06-08T02:44:07.718Z,1010.00
2019-06-08T02:45:07.712Z,1009.92
2019-06-08T02:46:07.695Z,1009.97
2019-06-08T02:47:07.714Z,1009.99
2019-06-08T02:48:07.672Z,1010.00
2019-06-08T02:49:07.682Z,1009.99
2019-06-08T02:50:07.654Z,1009.97
2019-06-08T02:51:07.649Z,1009.96
2019-06-08T02:52:07.672Z,1010.02
2019-06-08T02:53:07.641Z,1009.95
2019-06-08T02:54:07.606Z,1010.03
2019-06-08T02:55:07.601Z,1009.97
2019-06-08T02:56:07.595Z,1010.01
2019-06-08T02:57:07.572Z,1010.04
2019-06-08T02:58:07.566Z,1010.04
2019-06-08T02:59:07.603Z,1010.00
2019-06-08T03:00:07.538Z,1010.04
2019-06-08T03:01:07.527Z,1010.18
2019-06-08T03:02:07.537Z,1010.16
2019-06-08T03:03:07.519Z,1010.17
2019-06-08T03:04:07.499Z,1010.16
2019-06-08T03:05:07.484Z,1010.17
2019-06-08T03:06:07.519Z,1010.18
2019-06-08T03:07:07.467Z,1010.17
2019-06-08T03:08:07.449Z,1010.12
2019-06-08T03:09:07.442Z,1010.09
2019-06-08T03:10:07.438Z,1010.15
2019-06-08T03:11:07.420Z,1010.09
2019-06-08T03:12:07.423Z,1010.12
2019-06-08T03:13:07.398Z,1010.13
2019-06-08T03:14:07.401Z,1010.18
2019-06-08T03:15:07.379Z,1010.18
2019-06-08T03:16:07.376Z,1010.23
2019-06-08T03:17:07.361Z,1010.13
2019-06-08T03:18:07.336Z,1010.27
2019-06-08T03:19:20.979Z,1010.19
2019-06-08T03:20:08.319Z,1010.26
2019-06-08T03:21:07.303Z,1010.20
2019-06-08T03:22:10.783Z,1010.16
2019-06-08T03:23:07.281Z,1010.11
2019-06-08T03:24:07.285Z,1010.13
2019-06-08T03:25:07.263Z,1010.15
2019-06-08T03:26:07.249Z,1010.13
2019-06-08T03:27:07.238Z,1010.15
2019-06-08T03:28:07.235Z,1010.15
2019-06-08T03:29:07.239Z,1010.11
2019-06-08T03:30:16.268Z,1010.11
2019-06-08T03:31:08.200Z,1010.15
2019-06-08T03:32:07.194Z,1010.11
2019-06-08T03:33:07.169Z,1010.18
2019-06-08T03:34:07.157Z,1010.25
2019-06-08T03:35:07.148Z,1010.14
2019-06-08T03:36:07.269Z,1010.15
2019-06-08T03:37:07.140Z,1010.13
2019-06-08T03:38:07.113Z,1010.13
2019-06-08T03:39:07.106Z,1010.25
2019-06-08T03:40:07.105Z,1010.21
2019-06-08T03:41:07.081Z,1010.30
2019-06-08T03:42:07.102Z,1010.23
2019-06-08T03:43:07.065Z,1010.23
2019-06-08T03:44:07.061Z,1010.18
2019-06-08T03:45:07.040Z,1010.32
2019-06-08T03:46:07.023Z,1010.37
2019-06-08T03:47:07.014Z,1010.30
2019-06-08T03:48:07.014Z,1010.31
2019-06-08T03:49:06.992Z,1010.23
2019-06-08T03:50:06.977Z,1010.10
2019-06-08T03:51:06.973Z,1010.17
2019-06-08T03:52:06.976Z,1010.28
2019-06-08T03:53:06.969Z,1010.35
2019-06-08T03:54:06.936Z,1010.37
2019-06-08T03:55:06.921Z,1010.31
2019-06-08T03:56:06.916Z,1010.33
2019-06-08T03:57:06.901Z,1010.27
2019-06-08T03:58:06.894Z,1010.22
2019-06-08T03:59:06.885Z,1010.27
2019-06-08T04:00:13.031Z,1010.23
2019-06-08T04:01:07.859Z,1010.08
2019-06-08T04:02:06.846Z,1010.07
2019-06-08T04:03:06.845Z,1010.17
2019-06-08T04:04:06.856Z,1010.19
2019-06-08T04:05:06.820Z,1010.15
2019-06-08T04:06:06.815Z,1010.24
2019-06-08T04:07:06.788Z,1010.23
2019-06-08T04:08:06.782Z,1010.18
2019-06-08T04:09:06.765Z,1010.24
2019-06-08T04:10:06.763Z,1010.23
2019-06-08T04:11:06.749Z,1010.21
2019-06-08T04:12:06.731Z,1010.15
2019-06-08T04:13:10.884Z,1010.20
2019-06-08T04:14:06.709Z,1010.30
2019-06-08T04:15:06.724Z,1010.29
2019-06-08T04:16:06.687Z,1010.23
2019-06-08T04:17:06.681Z,1010.07
2019-06-08T04:18:06.678Z,1010.05
2019-06-08T04:19:06.667Z,1010.02
2019-06-08T04:20:11.561Z,1010.09
2019-06-08T04:21:07.634Z,1010.15
2019-06-08T04:22:06.625Z,1010.17
2019-06-08T04:23:06.619Z,1010.15
2019-06-08T04:24:06.612Z,1010.24
2019-06-08T04:25:06.589Z,1010.40
2019-06-08T04:26:06.579Z,1010.46
2019-06-08T04:27:06.572Z,1010.43
2019-06-08T04:28:06.582Z,1010.34
2019-06-08T04:29:06.551Z,1010.38
2019-06-08T04:30:06.530Z,1010.41
2019-06-08T04:31:06.586Z,1010.45
2019-06-08T04:32:06.510Z,1010.48
2019-06-08T04:33:06.498Z,1010.57
2019-06-08T04:34:06.496Z,1010.66
2019-06-08T04:35:06.482Z,1010.79
2019-06-08T04:36:06.474Z,1010.81
2019-06-08T04:37:06.492Z,1010.92
2019-06-08T04:38:06.443Z,1010.97
2019-06-08T04:39:06.439Z,1010.95
2019-06-08T04:40:06.421Z,1010.91
2019-06-08T04:41:06.416Z,1010.96
2019-06-08T04:42:06.403Z,1010.95
2019-06-08T04:43:06.396Z,1010.90
2019-06-08T04:44:06.410Z,1010.92
2019-06-08T04:45:06.364Z,1010.89
2019-06-08T04:46:06.357Z,1010.95
2019-06-08T04:47:06.362Z,1010.98
2019-06-08T04:48:09.562Z,1010.97
2019-06-08T04:49:06.318Z,1011.02
2019-06-08T04:50:21.997Z,1011.04
2019-06-08T04:51:07.302Z,1011.17
2019-06-08T04:52:06.286Z,1011.23
2019-06-08T04:53:06.290Z,1011.35
2019-06-08T04:54:06.270Z,1011.37
2019-06-08T04:55:06.256Z,1011.39
2019-06-08T04:56:06.255Z,1011.40
2019-06-08T04:57:06.238Z,1011.35
2019-06-08T04:58:06.247Z,1011.38
2019-06-08T04:59:06.214Z,1011.37
2019-06-08T05:00:11.745Z,1011.44
2019-06-08T05:01:07.186Z,1011.42
2019-06-08T05:02:06.181Z,1011.40
2019-06-08T05:03:06.170Z,1011.43
2019-06-08T05:04:06.237Z,1011.47
2019-06-08T05:05:06.146Z,1011.44
2019-06-08T05:06:06.134Z,1011.51
2019-06-08T05:07:06.119Z,1011.47
2019-06-08T05:08:06.117Z,1011.54
2019-06-08T05:09:06.096Z,1011.57
2019-06-08T05:10:06.094Z,1011.56
2019-06-08T05:11:06.079Z,1011.51
2019-06-08T05:12:06.063Z,1011.59
2019-06-08T05:13:06.059Z,1011.64
2019-06-08T05:14:06.045Z,1011.70
2019-06-08T05:15:06.039Z,1011.69
2019-06-08T05:16:06.022Z,1011.72
2019-06-08T05:17:06.023Z,1011.68
2019-06-08T05:18:06.003Z,1011.68
2019-06-08T05:19:05.991Z,1011.68
2019-06-08T05:20:05.980Z,1011.74
2019-06-08T05:21:05.974Z,1011.78
2019-06-08T05:22:05.970Z,1011.80
2019-06-08T05:23:05.944Z,1011.75
2019-06-08T05:24:05.928Z,1011.78
2019-06-08T05:25:05.916Z,1011.83
2019-06-08T05:26:05.916Z,1011.79
2019-06-08T05:27:05.900Z,1011.86
2019-06-08T05:28:05.895Z,1011.90
2019-06-08T05:29:05.876Z,1011.80
2019-06-08T05:30:08.675Z,1011.78
2019-06-08T05:31:05.854Z,1011.79
2019-06-08T05:32:05.855Z,1011.78
2019-06-08T05:33:05.877Z,1011.81
2019-06-08T05:34:05.816Z,1011.88
2019-06-08T05:35:05.821Z,1011.77
2019-06-08T05:36:05.800Z,1011.85
2019-06-08T05:37:05.796Z,1011.78
2019-06-08T05:38:05.784Z,1011.79
2019-06-08T05:39:05.777Z,1011.77
2019-06-08T05:40:05.767Z,1011.79
2019-06-08T05:41:05.738Z,1011.79
2019-06-08T05:42:05.732Z,1011.92
2019-06-08T05:43:05.726Z,1011.95
2019-06-08T05:44:05.703Z,1011.99
2019-06-08T05:45:05.709Z,1012.09
2019-06-08T05:46:05.691Z,1012.14
2019-06-08T05:47:05.671Z,1012.17
2019-06-08T05:48:05.666Z,1012.18
2019-06-08T05:49:05.648Z,1012.23
2019-06-08T05:50:05.640Z,1012.25
2019-06-08T05:51:05.636Z,1012.20
2019-06-08T05:52:05.616Z,1012.17
2019-06-08T05:53:05.615Z,1012.28
2019-06-08T05:54:05.593Z,1012.29
2019-06-08T05:55:05.580Z,1012.25
2019-06-08T05:56:05.582Z,1012.28
2019-06-08T05:57:05.561Z,1012.08
2019-06-08T05:58:05.549Z,1012.17
2019-06-08T05:59:05.548Z,1012.10
2019-06-08T06:00:09.051Z,1012.05
2019-06-08T06:01:05.522Z,1012.13
2019-06-08T06:02:05.504Z,1012.12
2019-06-08T06:03:05.492Z,1012.07
2019-06-08T06:04:05.481Z,1012.14
2019-06-08T06:05:05.475Z,1012.25
2019-06-08T06:06:05.507Z,1012.17
2019-06-08T06:07:05.455Z,1012.18
2019-06-08T06:08:18.024Z,1012.14
2019-06-08T06:09:06.428Z,1012.19
2019-06-08T06:10:05.422Z,1012.08
2019-06-08T06:11:05.402Z,1012.16
2019-06-08T06:12:05.403Z,1012.17
2019-06-08T06:13:05.386Z,1012.15
2019-06-08T06:14:05.375Z,1012.14
2019-06-08T06:15:05.362Z,1012.14
2019-06-08T06:16:05.368Z,1012.13
2019-06-08T06:17:05.362Z,1012.25
2019-06-08T06:18:05.327Z,1012.18
2019-06-08T06:19:05.318Z,1012.29
2019-06-08T06:20:05.305Z,1012.22
2019-06-08T06:21:11.253Z,1012.21
2019-06-08T06:22:06.304Z,1012.32
2019-06-08T06:23:05.273Z,1012.30
2019-06-08T06:24:05.265Z,1012.31
2019-06-08T06:25:05.256Z,1012.32
2019-06-08T06:26:05.242Z,1012.36
2019-06-08T06:27:05.228Z,1012.51
2019-06-08T06:28:06.426Z,1012.48
2019-06-08T06:29:05.211Z,1012.60
2019-06-08T06:30:05.220Z,1012.50
2019-06-08T06:31:05.180Z,1012.53
2019-06-08T06:32:05.170Z,1012.40
2019-06-08T06:33:05.177Z,1012.42
2019-06-08T06:34:05.149Z,1012.37
2019-06-08T06:35:05.143Z,1012.34
2019-06-08T06:36:05.128Z,1012.34
2019-06-08T06:37:05.115Z,1012.39
2019-06-08T06:38:05.104Z,1012.45
2019-06-08T06:39:05.125Z,1012.45
2019-06-08T06:40:05.088Z,1012.50
2019-06-08T06:41:05.073Z,1012.39
2019-06-08T06:42:05.066Z,1012.41
2019-06-08T06:43:05.049Z,1012.32
2019-06-08T06:44:05.053Z,1012.33
2019-06-08T06:45:05.024Z,1012.32
2019-06-08T06:46:05.022Z,1012.41
2019-06-08T06:47:05.029Z,1012.34
2019-06-08T06:48:04.993Z,1012.47
2019-06-08T06:49:04.983Z,1012.55
2019-06-08T06:50:04.976Z,1012.60
2019-06-08T06:51:04.959Z,1012.60
2019-06-08T06:52:04.966Z,1012.69
2019-06-08T06:53:04.951Z,1012.76
2019-06-08T06:54:04.926Z,1012.82
2019-06-08T06:55:04.922Z,1012.83
2019-06-08T06:56:04.904Z,1012.80
2019-06-08T06:57:04.919Z,1012.82
2019-06-08T06:58:04.893Z,1012.89
2019-06-08T06:59:04.878Z,1012.88
2019-06-08T07:00:04.858Z,1012.94
2019-06-08T07:01:04.848Z,1012.98
2019-06-08T07:02:04.835Z,1012.99
2019-06-08T07:03:04.865Z,1013.00
2019-06-08T07:04:04.813Z,1013.02
2019-06-08T07:05:04.808Z,1013.04
2019-06-08T07:06:04.789Z,1012.97
2019-06-08T07:07:04.795Z,1013.03
2019-06-08T07:08:04.764Z,1013.07
2019-06-08T07:09:04.917Z,1012.97
2019-06-08T07:10:04.753Z,1013.10
2019-06-08T07:11:04.730Z,1013.06
2019-06-08T07:12:04.721Z,1013.13
2019-06-08T07:13:04.720Z,1013.07
2019-06-08T07:14:04.725Z,1013.09
2019-06-08T07:15:04.696Z,1013.03
2019-06-08T07:16:17.764Z,1013.06
2019-06-08T07:17:05.664Z,1013.09
2019-06-08T07:18:04.675Z,1013.11
2019-06-08T07:19:04.641Z,1013.17
2019-06-08T07:20:04.666Z,1013.07
2019-06-08T07:21:04.627Z,1013.06
2019-06-08T07:22:04.613Z,1013.05
2019-06-08T07:23:04.597Z,1013.02
2019-06-08T07:24:04.590Z,1013.02
2019-06-08T07:25:04.578Z,1012.97
2019-06-08T07:26:04.573Z,1012.97
2019-06-08T07:27:07.387Z,1012.96
2019-06-08T07:28:04.584Z,1013.00
2019-06-08T07:29:04.542Z,1012.99
2019-06-08T07:30:04.560Z,1013.03
2019-06-08T07:31:04.527Z,1013.14
2019-06-08T07:32:04.502Z,1013.22
2019-06-08T07:33:04.488Z,1013.24
2019-06-08T07:34:04.480Z,1013.29
2019-06-08T07:35:04.471Z,1013.37
2019-06-08T07:36:04.465Z,1013.36
2019-06-08T07:37:04.454Z,1013.47
2019-06-08T07:38:04.482Z,1013.46
2019-06-08T07:39:04.428Z,1013.52
2019-06-08T07:40:04.409Z,1013.63
2019-06-08T07:41:04.413Z,1013.54
2019-06-08T07:42:04.391Z,1013.61
2019-06-08T07:43:04.372Z,1013.54
2019-06-08T07:44:04.379Z,1013.56
2019-06-08T07:45:04.356Z,1013.63
2019-06-08T07:46:04.358Z,1013.66
2019-06-08T07:47:04.330Z,1013.71
2019-06-08T07:48:04.317Z,1013.67
2019-06-08T07:49:04.305Z,1013.62
2019-06-08T07:50:04.863Z,1013.74
2019-06-08T07:51:04.300Z,1013.68
2019-06-08T07:52:10.368Z,1013.75
2019-06-08T07:53:05.266Z,1013.72
2019-06-08T07:54:04.281Z,1013.72
2019-06-08T07:55:04.247Z,1013.82
2019-06-08T07:56:04.233Z,1013.76
2019-06-08T07:57:04.218Z,1013.66
2019-06-08T07:58:04.224Z,1013.63
2019-06-08T07:59:04.200Z,1013.54
2019-06-08T08:00:09.058Z,1013.55
2019-06-08T08:01:08.152Z,1013.62
2019-06-08T08:02:04.167Z,1013.63
2019-06-08T08:03:04.173Z,1013.62
2019-06-08T08:04:04.164Z,1013.75
2019-06-08T08:05:04.134Z,1013.80
2019-06-08T08:06:04.122Z,1013.87
2019-06-08T08:07:04.116Z,1013.81
2019-06-08T08:08:04.098Z,1013.98
2019-06-08T08:09:04.111Z,1014.07
2019-06-08T08:10:04.116Z,1014.08
2019-06-08T08:11:04.060Z,1014.12
2019-06-08T08:12:04.062Z,1014.18
2019-06-08T08:13:04.043Z,1014.20
2019-06-08T08:14:04.044Z,1014.16
2019-06-08T08:15:04.021Z,1014.07
2019-06-08T08:16:04.012Z,1014.14
2019-06-08T08:17:04.028Z,1014.12
2019-06-08T08:18:03.991Z,1014.09
2019-06-08T08:19:03.974Z,1014.11
2019-06-08T08:20:03.956Z,1014.01
2019-06-08T08:21:14.381Z,1014.08
2019-06-08T08:22:19.468Z,1014.04
2019-06-08T08:23:06.920Z,1014.00
2019-06-08T08:24:03.917Z,1014.00
2019-06-08T08:25:05.091Z,1014.03
2019-06-08T08:26:03.888Z,1013.99
2019-06-08T08:27:04.007Z,1013.99
2019-06-08T08:28:03.901Z,1013.99
2019-06-08T08:29:03.866Z,1013.97
2019-06-08T08:30:03.872Z,1013.96
2019-06-08T08:31:03.834Z,1013.95
2019-06-08T08:32:03.825Z,1014.03
2019-06-08T08:33:03.808Z,1014.02
2019-06-08T08:34:05.714Z,1014.02
2019-06-08T08:35:03.792Z,1013.98
2019-06-08T08:36:03.793Z,1013.95
2019-06-08T08:37:06.368Z,1013.86
2019-06-08T08:38:05.426Z,1013.95
2019-06-08T08:39:03.757Z,1014.01
2019-06-08T08:40:03.775Z,1014.03
2019-06-08T08:41:07.240Z,1014.08
2019-06-08T08:42:05.326Z,1013.98
2019-06-08T08:43:03.705Z,1014.01
2019-06-08T08:44:04.840Z,1013.88
2019-06-08T08:45:05.349Z,1013.89
2019-06-08T08:46:03.674Z,1013.96
2019-06-08T08:47:03.667Z,1013.97
2019-06-08T08:48:20.015Z,1013.83
2019-06-08T08:49:09.396Z,1013.80
2019-06-08T08:50:04.618Z,1013.68
2019-06-08T08:51:03.925Z,1013.67
2019-06-08T08:52:03.606Z,1013.60
2019-06-08T08:53:03.608Z,1013.54
2019-06-08T08:54:05.438Z,1013.47
2019-06-08T08:55:03.574Z,1013.45
2019-06-08T08:56:03.559Z,1013.42
2019-06-08T08:57:05.241Z,1013.39
2019-06-08T08:58:03.531Z,1013.27
2019-06-08T08:59:03.533Z,1013.16
2019-06-08T09:00:05.146Z,1013.19
2019-06-08T09:01:03.927Z,1013.08
2019-06-08T09:02:03.523Z,1013.18
2019-06-08T09:03:22.109Z,1013.26
2019-06-08T09:04:05.265Z,1013.27
2019-06-08T09:05:03.977Z,1013.35
2019-06-08T09:06:04.106Z,1013.49
2019-06-08T09:07:07.744Z,1013.64
2019-06-08T09:08:04.430Z,1013.80
2019-06-08T09:09:03.758Z,1013.88
2019-06-08T09:10:03.863Z,1014.07
2019-06-08T09:11:03.854Z,1014.16
2019-06-08T09:12:04.543Z,1014.14
2019-06-08T09:13:04.743Z,1014.21
2019-06-08T09:14:07.117Z,1014.26
2019-06-08T09:15:04.376Z,1014.19
2019-06-08T09:16:04.374Z,1014.29
2019-06-08T09:17:03.695Z,1014.34
2019-06-08T09:18:03.863Z,1014.29
2019-06-08T09:19:04.453Z,1014.27
2019-06-08T09:20:03.883Z,1014.25
2019-06-08T09:21:04.235Z,1014.23
2019-06-08T09:22:04.036Z,1014.08
2019-06-08T09:23:12.813Z,1014.05
2019-06-08T09:24:04.345Z,1014.10
2019-06-08T09:25:04.504Z,1014.16
2019-06-08T09:26:09.284Z,1014.25
2019-06-08T09:27:04.484Z,1014.19
2019-06-08T09:28:04.814Z,1014.24
2019-06-08T09:29:07.314Z,1014.25
2019-06-08T09:30:04.759Z,1014.29
2019-06-08T09:31:04.157Z,1014.32
2019-06-08T09:32:03.647Z,1014.34
2019-06-08T09:33:04.300Z,1014.35
2019-06-08T09:34:09.392Z,1014.37
2019-06-08T09:35:04.834Z,1014.30
2019-06-08T09:36:04.917Z,1014.29
2019-06-08T09:37:04.976Z,1014.28
2019-06-08T09:38:04.991Z,1014.12
2019-06-08T09:39:04.719Z,1014.13
2019-06-08T09:40:03.737Z,1014.12
2019-06-08T09:41:04.927Z,1014.07
2019-06-08T09:42:04.867Z,1014.15
2019-06-08T09:43:08.494Z,1014.17
2019-06-08T09:44:05.768Z,1014.22
2019-06-08T09:45:05.356Z,1014.18
2019-06-08T09:46:05.272Z,1014.22
2019-06-08T09:47:09.463Z,1014.31
2019-06-08T09:48:05.669Z,1014.36
2019-06-08T09:49:07.590Z,1014.39
2019-06-08T09:50:05.581Z,1014.39
2019-06-08T09:51:05.650Z,1014.31
2019-06-08T09:52:05.116Z,1014.21
2019-06-08T09:53:22.353Z,1014.18
2019-06-08T09:54:06.122Z,1014.14
2019-06-08T09:55:05.821Z,1014.23
2019-06-08T09:56:05.377Z,1014.32
2019-06-08T09:57:04.436Z,1014.48
2019-06-08T09:58:07.787Z,1014.58
2019-06-08T09:59:07.129Z,1014.59
2019-06-08T10:00:14.461Z,1014.73
2019-06-08T10:01:05.987Z,1014.71
2019-06-08T10:02:07.418Z,1014.67
2019-06-08T10:03:06.150Z,1014.76
2019-06-08T10:04:04.556Z,1014.78
2019-06-08T10:05:04.475Z,1014.81
2019-06-08T10:06:06.866Z,1014.82
2019-06-08T10:07:04.304Z,1014.82
2019-06-08T10:08:04.136Z,1014.83
2019-06-08T10:09:02.870Z,1014.74
2019-06-08T10:10:04.444Z,1014.74
2019-06-08T10:11:05.640Z,1014.67
2019-06-08T10:12:04.580Z,1014.69
2019-06-08T10:13:05.369Z,1014.68
2019-06-08T10:14:06.329Z,1014.71
2019-06-08T10:15:04.731Z,1014.69
2019-06-08T10:16:05.371Z,1014.78
2019-06-08T10:17:03.945Z,1014.83
2019-06-08T10:18:03.310Z,1014.82
2019-06-08T10:19:05.217Z,1014.72
2019-06-08T10:20:03.499Z,1014.75
2019-06-08T10:21:03.452Z,1014.73
2019-06-08T10:22:02.999Z,1014.68
2019-06-08T10:23:04.825Z,1014.66
2019-06-08T10:24:04.773Z,1014.66
2019-06-08T10:25:05.642Z,1014.67
2019-06-08T10:26:04.781Z,1014.67
2019-06-08T10:27:03.533Z,1014.69
2019-06-08T10:28:10.109Z,1014.68
2019-06-08T10:29:05.250Z,1014.64
2019-06-08T10:30:05.870Z,1014.60
2019-06-08T10:31:03.725Z,1014.52
2019-06-08T10:32:03.681Z,1014.45
2019-06-08T10:33:04.723Z,1014.22
2019-06-08T10:34:03.876Z,1014.17
2019-06-08T10:35:04.264Z,1014.18
2019-06-08T10:36:05.277Z,1014.23
2019-06-08T10:37:07.866Z,1014.19
2019-06-08T10:38:07.937Z,1014.41
2019-06-08T10:39:07.305Z,1014.50
2019-06-08T10:40:05.449Z,1014.53
2019-06-08T10:41:10.773Z,1014.47
2019-06-08T10:42:06.132Z,1014.47
2019-06-08T10:43:03.391Z,1014.45
2019-06-08T10:44:03.467Z,1014.42
2019-06-08T10:45:06.501Z,1014.43
2019-06-08T10:46:09.970Z,1014.50
2019-06-08T10:47:05.526Z,1014.61
2019-06-08T10:48:03.262Z,1014.55
2019-06-08T10:49:04.041Z,1014.67
2019-06-08T10:50:07.489Z,1014.69
2019-06-08T10:51:05.433Z,1014.72
2019-06-08T10:52:04.312Z,1014.73
2019-06-08T10:53:04.090Z,1014.68
2019-06-08T10:54:02.280Z,1014.66
2019-06-08T10:55:04.643Z,1014.67
2019-06-08T10:56:03.467Z,1014.70
2019-06-08T10:57:05.060Z,1014.74
2019-06-08T10:58:02.419Z,1014.81
2019-06-08T10:59:04.752Z,1014.82
2019-06-08T11:00:12.274Z,1014.73
2019-06-08T11:01:05.800Z,1014.76
2019-06-08T11:02:06.725Z,1014.79
2019-06-08T11:03:05.316Z,1014.79
2019-06-08T11:04:03.293Z,1014.80
2019-06-08T11:05:04.730Z,1014.62
2019-06-08T11:06:04.250Z,1014.72
2019-06-08T11:07:07.190Z,1014.71
2019-06-08T11:08:04.177Z,1014.70
2019-06-08T11:09:05.697Z,1014.75
2019-06-08T11:10:03.932Z,1014.68
2019-06-08T11:11:02.949Z,1014.62
2019-06-08T11:12:03.241Z,1014.66
2019-06-08T11:13:05.148Z,1014.70
2019-06-08T11:14:05.103Z,1014.58
2019-06-08T11:15:03.549Z,1014.65
2019-06-08T11:16:02.810Z,1014.65
2019-06-08T11:17:02.823Z,1014.57
2019-06-08T11:18:05.024Z,1014.56
2019-06-08T11:19:04.266Z,1014.73
2019-06-08T11:20:03.002Z,1014.52
2019-06-08T11:21:03.314Z,1014.45
2019-06-08T11:22:05.003Z,1014.42
2019-06-08T11:23:03.606Z,1014.39
2019-06-08T11:24:15.507Z,1014.32
2019-06-08T11:25:04.404Z,1014.24
2019-06-08T11:26:04.651Z,1014.32
2019-06-08T11:27:03.521Z,1014.38
2019-06-08T11:28:02.206Z,1014.48
2019-06-08T11:29:02.937Z,1014.51
2019-06-08T11:30:09.930Z,1014.65
2019-06-08T11:31:03.967Z,1014.72
2019-06-08T11:32:02.138Z,1014.44
2019-06-08T11:33:02.137Z,1014.47
2019-06-08T11:34:03.614Z,1014.48
2019-06-08T11:35:02.108Z,1014.57
2019-06-08T11:36:05.795Z,1014.67
2019-06-08T11:37:03.601Z,1014.58
2019-06-08T11:38:02.237Z,1014.62
2019-06-08T11:39:02.573Z,1014.68
2019-06-08T11:40:02.140Z,1014.57
2019-06-08T11:41:04.320Z,1014.58
2019-06-08T11:42:02.288Z,1014.54
2019-06-08T11:43:02.290Z,1014.52
2019-06-08T11:44:03.456Z,1014.59
2019-06-08T11:45:02.292Z,1014.48
2019-06-08T11:46:02.594Z,1014.44
2019-06-08T11:47:02.500Z,1014.31
2019-06-08T11:48:02.718Z,1014.43
2019-06-08T11:49:04.896Z,1014.53
2019-06-08T11:50:02.870Z,1014.72
2019-06-08T11:51:02.587Z,1014.69
2019-06-08T11:52:02.578Z,1014.71
2019-06-08T11:53:02.353Z,1014.64
2019-06-08T11:54:02.901Z,1014.85
2019-06-08T11:55:03.489Z,1014.65
2019-06-08T11:56:02.680Z,1014.67
2019-06-08T11:57:02.756Z,1014.73
2019-06-08T11:58:01.549Z,1014.69
2019-06-08T11:59:01.534Z,1014.67
2019-06-08T12:00:09.227Z,1014.79
2019-06-08T12:01:04.741Z,1014.72
2019-06-08T12:02:01.869Z,1014.65
2019-06-08T12:03:02.216Z,1014.59
2019-06-08T12:04:01.610Z,1014.56
2019-06-08T12:05:01.778Z,1014.62